sensor_id;sensor_type;location;lat;lon;timestamp;temperature;humidity
37998;DHT22;24079;51.824;4.682;2023-10-19T00:01:10;13.60;99.90
37998;DHT22;24079;51.824;4.682;2023-10-19T00:03:37;13.60;99.90
37998;DHT22;24079;51.824;4.682;2023-10-19T00:06:04;13.70;99.90
37998;DHT22;24079;51.824;4.682;2023-10-19T00:08:31;13.60;99.90
37998;DHT22;24079;51.824;4.682;2023-10-19T00:11:10;13.70;99.90
37998;DHT22;24079;51.824;4.682;2023-10-19T00:13:47;13.70;99.90
37998;DHT22;24079;51.824;4.682;2023-10-19T00:16:17;13.70;99.90
37998;DHT22;24079;51.824;4.682;2023-10-19T00:18:44;13.70;99.90
37998;DHT22;24079;51.824;4.682;2023-10-19T00:21:10;13.80;99.90
37998;DHT22;24079;51.824;4.682;2023-10-19T00:23:54;13.80;99.90
37998;DHT22;24079;51.824;4.682;2023-10-19T00:26:24;13.80;99.90
37998;DHT22;24079;51.824;4.682;2023-10-19T00:28:56;13.80;99.90
37998;DHT22;24079;51.824;4.682;2023-10-19T00:31:23;13.80;99.90
37998;DHT22;24079;51.824;4.682;2023-10-19T00:33:49;13.90;99.90
37998;DHT22;24079;51.824;4.682;2023-10-19T00:36:18;13.90;99.90
37998;DHT22;24079;51.824;4.682;2023-10-19T00:38:46;13.90;99.90
37998;DHT22;24079;51.824;4.682;2023-10-19T00:41:17;14.00;99.90
37998;DHT22;24079;51.824;4.682;2023-10-19T00:43:59;14.00;99.90
37998;DHT22;24079;51.824;4.682;2023-10-19T00:46:39;14.00;99.90
37998;DHT22;24079;51.824;4.682;2023-10-19T00:49:12;14.00;99.90
37998;DHT22;24079;51.824;4.682;2023-10-19T00:51:51;14.10;99.90
37998;DHT22;24079;51.824;4.682;2023-10-19T00:54:23;14.10;99.90
37998;DHT22;24079;51.824;4.682;2023-10-19T00:56:58;14.20;99.90
37998;DHT22;24079;51.824;4.682;2023-10-19T00:59:29;14.20;99.90
37998;DHT22;24079;51.824;4.682;2023-10-19T01:01:57;14.20;99.90
37998;DHT22;24079;51.824;4.682;2023-10-19T01:04:41;14.30;99.90
37998;DHT22;24079;51.824;4.682;2023-10-19T01:07:10;14.40;99.90
37998;DHT22;24079;51.824;4.682;2023-10-19T01:09:48;14.40;99.90
37998;DHT22;24079;51.824;4.682;2023-10-19T01:12:14;14.50;99.90
37998;DHT22;24079;51.824;4.682;2023-10-19T01:17:29;14.90;99.90
37998;DHT22;24079;51.824;4.682;2023-10-19T01:19:57;15.00;99.90
37998;DHT22;24079;51.824;4.682;2023-10-19T01:22:24;15.10;99.90
37998;DHT22;24079;51.824;4.682;2023-10-19T01:24:52;15.10;99.90
37998;DHT22;24079;51.824;4.682;2023-10-19T01:27:21;15.20;99.90
37998;DHT22;24079;51.824;4.682;2023-10-19T01:29:48;15.20;99.90
37998;DHT22;24079;51.824;4.682;2023-10-19T01:32:17;15.30;99.90
37998;DHT22;24079;51.824;4.682;2023-10-19T01:34:43;15.30;99.90
37998;DHT22;24079;51.824;4.682;2023-10-19T01:37:10;15.40;99.90
37998;DHT22;24079;51.824;4.682;2023-10-19T01:39:38;15.40;99.90
37998;DHT22;24079;51.824;4.682;2023-10-19T01:42:05;15.40;99.90
37998;DHT22;24079;51.824;4.682;2023-10-19T01:44:32;15.40;99.90
37998;DHT22;24079;51.824;4.682;2023-10-19T01:47:02;15.40;99.90
37998;DHT22;24079;51.824;4.682;2023-10-19T01:49:31;15.40;99.90
37998;DHT22;24079;51.824;4.682;2023-10-19T01:51:57;15.30;99.90
37998;DHT22;24079;51.824;4.682;2023-10-19T01:54:23;15.30;99.90
37998;DHT22;24079;51.824;4.682;2023-10-19T01:57:09;15.30;99.90
37998;DHT22;24079;51.824;4.682;2023-10-19T01:59:35;15.30;99.90
37998;DHT22;24079;51.824;4.682;2023-10-19T02:02:01;15.20;99.90
37998;DHT22;24079;51.824;4.682;2023-10-19T02:04:28;15.30;99.90
37998;DHT22;24079;51.824;4.682;2023-10-19T02:06:54;15.20;99.90
37998;DHT22;24079;51.824;4.682;2023-10-19T02:09:20;15.20;99.90
37998;DHT22;24079;51.824;4.682;2023-10-19T02:11:56;15.20;99.90
37998;DHT22;24079;51.824;4.682;2023-10-19T02:14:24;15.10;99.90
37998;DHT22;24079;51.824;4.682;2023-10-19T02:16:57;15.10;99.90
37998;DHT22;24079;51.824;4.682;2023-10-19T02:19:26;15.20;99.90
37998;DHT22;24079;51.824;4.682;2023-10-19T02:21:57;15.10;99.90
37998;DHT22;24079;51.824;4.682;2023-10-19T02:24:24;15.10;99.90
37998;DHT22;24079;51.824;4.682;2023-10-19T02:26:53;15.20;99.90
37998;DHT22;24079;51.824;4.682;2023-10-19T02:29:20;15.20;99.90
37998;DHT22;24079;51.824;4.682;2023-10-19T02:31:47;15.20;99.90
37998;DHT22;24079;51.824;4.682;2023-10-19T02:34:13;15.20;99.90
37998;DHT22;24079;51.824;4.682;2023-10-19T02:36:44;15.20;99.90
37998;DHT22;24079;51.824;4.682;2023-10-19T02:39:11;15.20;99.90
37998;DHT22;24079;51.824;4.682;2023-10-19T02:41:43;15.20;99.90
37998;DHT22;24079;51.824;4.682;2023-10-19T02:44:14;15.20;99.90
37998;DHT22;24079;51.824;4.682;2023-10-19T02:46:42;15.10;99.90
37998;DHT22;24079;51.824;4.682;2023-10-19T02:49:09;15.10;99.90
37998;DHT22;24079;51.824;4.682;2023-10-19T02:51:40;15.10;99.90
37998;DHT22;24079;51.824;4.682;2023-10-19T02:54:07;15.20;99.90
37998;DHT22;24079;51.824;4.682;2023-10-19T02:56:33;15.20;99.90
37998;DHT22;24079;51.824;4.682;2023-10-19T02:59:03;15.20;99.90
37998;DHT22;24079;51.824;4.682;2023-10-19T03:01:32;15.20;99.90
37998;DHT22;24079;51.824;4.682;2023-10-19T03:04:00;15.20;99.90
37998;DHT22;24079;51.824;4.682;2023-10-19T03:06:30;15.20;99.90
37998;DHT22;24079;51.824;4.682;2023-10-19T03:09:16;15.10;99.90
37998;DHT22;24079;51.824;4.682;2023-10-19T03:11:48;15.10;99.90
37998;DHT22;24079;51.824;4.682;2023-10-19T03:14:19;15.10;99.90
37998;DHT22;24079;51.824;4.682;2023-10-19T03:16:45;15.00;99.90
37998;DHT22;24079;51.824;4.682;2023-10-19T03:19:11;15.10;99.90
37998;DHT22;24079;51.824;4.682;2023-10-19T03:21:38;15.10;99.90
37998;DHT22;24079;51.824;4.682;2023-10-19T03:24:11;15.10;99.90
37998;DHT22;24079;51.824;4.682;2023-10-19T03:27:14;15.00;99.90
37998;DHT22;24079;51.824;4.682;2023-10-19T03:29:45;15.00;99.90
37998;DHT22;24079;51.824;4.682;2023-10-19T03:32:19;15.00;99.90
37998;DHT22;24079;51.824;4.682;2023-10-19T03:34:52;14.90;99.90
37998;DHT22;24079;51.824;4.682;2023-10-19T03:37:22;14.90;99.90
37998;DHT22;24079;51.824;4.682;2023-10-19T03:39:48;14.80;99.90
37998;DHT22;24079;51.824;4.682;2023-10-19T03:42:14;14.70;99.90
37998;DHT22;24079;51.824;4.682;2023-10-19T03:44:40;14.70;99.90
37998;DHT22;24079;51.824;4.682;2023-10-19T03:47:15;14.70;99.90
37998;DHT22;24079;51.824;4.682;2023-10-19T03:49:51;14.70;99.90
37998;DHT22;24079;51.824;4.682;2023-10-19T03:52:17;14.70;99.90
37998;DHT22;24079;51.824;4.682;2023-10-19T03:54:43;14.60;99.90
37998;DHT22;24079;51.824;4.682;2023-10-19T03:57:12;14.60;99.90
37998;DHT22;24079;51.824;4.682;2023-10-19T03:59:40;14.60;99.90
37998;DHT22;24079;51.824;4.682;2023-10-19T04:02:10;14.50;99.90
37998;DHT22;24079;51.824;4.682;2023-10-19T04:04:42;14.50;99.90
37998;DHT22;24079;51.824;4.682;2023-10-19T04:07:15;14.60;99.90
37998;DHT22;24079;51.824;4.682;2023-10-19T04:09:49;14.60;99.90
37998;DHT22;24079;51.824;4.682;2023-10-19T04:12:34;14.60;99.90
37998;DHT22;24079;51.824;4.682;2023-10-19T04:15:06;14.60;99.90
37998;DHT22;24079;51.824;4.682;2023-10-19T04:17:43;14.50;99.90
37998;DHT22;24079;51.824;4.682;2023-10-19T04:20:12;14.60;99.90
37998;DHT22;24079;51.824;4.682;2023-10-19T04:22:45;14.50;99.90
37998;DHT22;24079;51.824;4.682;2023-10-19T04:25:12;14.50;99.90
37998;DHT22;24079;51.824;4.682;2023-10-19T04:27:41;14.60;99.90
37998;DHT22;24079;51.824;4.682;2023-10-19T04:30:12;14.60;99.90
37998;DHT22;24079;51.824;4.682;2023-10-19T04:32:45;14.60;99.90
37998;DHT22;24079;51.824;4.682;2023-10-19T04:35:14;14.60;99.90
37998;DHT22;24079;51.824;4.682;2023-10-19T04:37:55;14.60;99.90
37998;DHT22;24079;51.824;4.682;2023-10-19T04:40:22;14.60;99.90
37998;DHT22;24079;51.824;4.682;2023-10-19T04:42:49;14.60;99.90
37998;DHT22;24079;51.824;4.682;2023-10-19T04:45:16;14.70;99.90
37998;DHT22;24079;51.824;4.682;2023-10-19T04:47:42;14.70;99.90
37998;DHT22;24079;51.824;4.682;2023-10-19T04:50:08;14.80;99.90
37998;DHT22;24079;51.824;4.682;2023-10-19T04:52:36;14.70;99.90
37998;DHT22;24079;51.824;4.682;2023-10-19T04:55:02;14.70;99.90
37998;DHT22;24079;51.824;4.682;2023-10-19T04:57:28;14.70;99.90
37998;DHT22;24079;51.824;4.682;2023-10-19T04:59:54;14.80;99.90
37998;DHT22;24079;51.824;4.682;2023-10-19T05:02:20;14.70;99.90
37998;DHT22;24079;51.824;4.682;2023-10-19T05:04:46;14.70;99.90
37998;DHT22;24079;51.824;4.682;2023-10-19T05:07:12;14.80;99.90
37998;DHT22;24079;51.824;4.682;2023-10-19T05:09:40;14.80;99.90
37998;DHT22;24079;51.824;4.682;2023-10-19T05:12:06;14.80;99.90
37998;DHT22;24079;51.824;4.682;2023-10-19T05:14:39;14.80;99.90
37998;DHT22;24079;51.824;4.682;2023-10-19T05:17:05;14.80;99.90
37998;DHT22;24079;51.824;4.682;2023-10-19T05:19:31;14.80;99.90
37998;DHT22;24079;51.824;4.682;2023-10-19T05:21:59;14.80;99.90
37998;DHT22;24079;51.824;4.682;2023-10-19T05:24:24;14.90;99.90
37998;DHT22;24079;51.824;4.682;2023-10-19T05:26:52;14.90;99.90
37998;DHT22;24079;51.824;4.682;2023-10-19T05:29:19;14.90;99.90
37998;DHT22;24079;51.824;4.682;2023-10-19T05:31:45;14.90;99.90
37998;DHT22;24079;51.824;4.682;2023-10-19T05:34:11;14.90;99.90
37998;DHT22;24079;51.824;4.682;2023-10-19T05:36:37;14.80;99.90
37998;DHT22;24079;51.824;4.682;2023-10-19T05:39:05;14.90;99.90
37998;DHT22;24079;51.824;4.682;2023-10-19T05:41:33;14.90;99.90
37998;DHT22;24079;51.824;4.682;2023-10-19T05:44:04;14.90;99.90
37998;DHT22;24079;51.824;4.682;2023-10-19T05:46:30;14.80;99.90
37998;DHT22;24079;51.824;4.682;2023-10-19T05:48:56;14.90;99.90
37998;DHT22;24079;51.824;4.682;2023-10-19T05:51:23;14.90;99.90
37998;DHT22;24079;51.824;4.682;2023-10-19T05:53:50;14.90;99.90
37998;DHT22;24079;51.824;4.682;2023-10-19T05:56:20;14.90;99.90
37998;DHT22;24079;51.824;4.682;2023-10-19T05:58:47;15.00;99.90
37998;DHT22;24079;51.824;4.682;2023-10-19T06:01:17;14.90;99.90
37998;DHT22;24079;51.824;4.682;2023-10-19T06:03:44;14.90;99.90
37998;DHT22;24079;51.824;4.682;2023-10-19T06:06:10;15.00;99.90
37998;DHT22;24079;51.824;4.682;2023-10-19T06:08:36;15.00;99.90
37998;DHT22;24079;51.824;4.682;2023-10-19T06:11:02;15.00;99.90
37998;DHT22;24079;51.824;4.682;2023-10-19T06:13:30;15.00;99.90
37998;DHT22;24079;51.824;4.682;2023-10-19T06:15:56;15.00;99.90
37998;DHT22;24079;51.824;4.682;2023-10-19T06:18:22;15.10;99.90
37998;DHT22;24079;51.824;4.682;2023-10-19T06:20:48;15.10;99.90
37998;DHT22;24079;51.824;4.682;2023-10-19T06:23:16;15.10;99.90
37998;DHT22;24079;51.824;4.682;2023-10-19T06:25:43;15.10;99.90
37998;DHT22;24079;51.824;4.682;2023-10-19T06:28:10;15.10;99.90
37998;DHT22;24079;51.824;4.682;2023-10-19T06:30:39;15.10;99.90
37998;DHT22;24079;51.824;4.682;2023-10-19T06:33:24;15.10;99.90
37998;DHT22;24079;51.824;4.682;2023-10-19T06:35:50;15.10;99.90
37998;DHT22;24079;51.824;4.682;2023-10-19T06:38:15;15.10;99.90
37998;DHT22;24079;51.824;4.682;2023-10-19T06:40:41;15.20;99.90
37998;DHT22;24079;51.824;4.682;2023-10-19T06:43:07;15.20;99.90
37998;DHT22;24079;51.824;4.682;2023-10-19T06:45:33;15.20;99.90
37998;DHT22;24079;51.824;4.682;2023-10-19T06:47:59;15.20;99.90
37998;DHT22;24079;51.824;4.682;2023-10-19T06:50:26;15.20;99.90
37998;DHT22;24079;51.824;4.682;2023-10-19T06:52:52;15.20;99.90
37998;DHT22;24079;51.824;4.682;2023-10-19T06:55:19;15.20;99.90
37998;DHT22;24079;51.824;4.682;2023-10-19T06:57:49;15.20;99.90
37998;DHT22;24079;51.824;4.682;2023-10-19T07:00:16;15.30;99.90
37998;DHT22;24079;51.824;4.682;2023-10-19T07:02:45;15.30;99.90
37998;DHT22;24079;51.824;4.682;2023-10-19T07:05:11;15.30;99.90
37998;DHT22;24079;51.824;4.682;2023-10-19T07:07:41;15.40;99.90
37998;DHT22;24079;51.824;4.682;2023-10-19T07:10:08;15.30;99.90
37998;DHT22;24079;51.824;4.682;2023-10-19T07:12:38;15.30;99.90
37998;DHT22;24079;51.824;4.682;2023-10-19T07:15:06;15.30;99.90
37998;DHT22;24079;51.824;4.682;2023-10-19T07:17:39;15.40;99.90
37998;DHT22;24079;51.824;4.682;2023-10-19T07:20:06;15.40;99.90
37998;DHT22;24079;51.824;4.682;2023-10-19T07:22:32;15.40;99.90
37998;DHT22;24079;51.824;4.682;2023-10-19T07:24:58;15.40;99.90
37998;DHT22;24079;51.824;4.682;2023-10-19T07:27:25;15.40;99.90
37998;DHT22;24079;51.824;4.682;2023-10-19T07:29:54;15.40;99.90
37998;DHT22;24079;51.824;4.682;2023-10-19T07:32:20;15.40;99.90
37998;DHT22;24079;51.824;4.682;2023-10-19T07:34:47;15.50;99.90
37998;DHT22;24079;51.824;4.682;2023-10-19T07:37:13;15.50;99.90
37998;DHT22;24079;51.824;4.682;2023-10-19T07:39:59;15.60;99.90
37998;DHT22;24079;51.824;4.682;2023-10-19T07:42:25;15.60;99.90
37998;DHT22;24079;51.824;4.682;2023-10-19T07:44:51;15.70;99.90
37998;DHT22;24079;51.824;4.682;2023-10-19T07:47:17;15.70;99.90
37998;DHT22;24079;51.824;4.682;2023-10-19T07:49:43;15.70;99.90
37998;DHT22;24079;51.824;4.682;2023-10-19T07:52:09;15.60;99.90
37998;DHT22;24079;51.824;4.682;2023-10-19T07:54:40;15.60;99.90
37998;DHT22;24079;51.824;4.682;2023-10-19T07:57:06;15.70;99.90
37998;DHT22;24079;51.824;4.682;2023-10-19T07:59:32;15.70;99.90
37998;DHT22;24079;51.824;4.682;2023-10-19T08:01:59;15.70;99.90
37998;DHT22;24079;51.824;4.682;2023-10-19T08:04:29;15.80;99.90
37998;DHT22;24079;51.824;4.682;2023-10-19T08:06:55;15.80;99.90
37998;DHT22;24079;51.824;4.682;2023-10-19T08:09:22;15.90;99.90
37998;DHT22;24079;51.824;4.682;2023-10-19T08:11:52;15.90;99.90
37998;DHT22;24079;51.824;4.682;2023-10-19T08:14:25;16.00;99.90
37998;DHT22;24079;51.824;4.682;2023-10-19T08:16:52;16.00;99.90
37998;DHT22;24079;51.824;4.682;2023-10-19T08:19:18;16.10;99.90
37998;DHT22;24079;51.824;4.682;2023-10-19T08:21:44;16.20;99.90
37998;DHT22;24079;51.824;4.682;2023-10-19T08:24:10;16.40;99.90
37998;DHT22;24079;51.824;4.682;2023-10-19T08:26:42;16.60;99.90
37998;DHT22;24079;51.824;4.682;2023-10-19T08:29:10;16.80;99.90
37998;DHT22;24079;51.824;4.682;2023-10-19T08:31:40;16.90;99.90
37998;DHT22;24079;51.824;4.682;2023-10-19T08:34:06;17.00;99.90
37998;DHT22;24079;51.824;4.682;2023-10-19T08:36:32;17.10;99.90
37998;DHT22;24079;51.824;4.682;2023-10-19T08:38:58;17.10;99.90
37998;DHT22;24079;51.824;4.682;2023-10-19T08:41:24;17.20;99.90
37998;DHT22;24079;51.824;4.682;2023-10-19T08:43:50;17.20;99.90
37998;DHT22;24079;51.824;4.682;2023-10-19T08:46:17;17.30;99.90
37998;DHT22;24079;51.824;4.682;2023-10-19T08:48:43;17.50;99.90
37998;DHT22;24079;51.824;4.682;2023-10-19T08:51:10;17.50;99.90
37998;DHT22;24079;51.824;4.682;2023-10-19T08:53:39;17.60;99.90
37998;DHT22;24079;51.824;4.682;2023-10-19T08:56:08;17.70;99.90
37998;DHT22;24079;51.824;4.682;2023-10-19T08:58:34;17.70;99.90
37998;DHT22;24079;51.824;4.682;2023-10-19T09:01:00;17.70;99.90
37998;DHT22;24079;51.824;4.682;2023-10-19T09:03:32;17.60;99.90
37998;DHT22;24079;51.824;4.682;2023-10-19T09:06:04;17.60;99.90
37998;DHT22;24079;51.824;4.682;2023-10-19T09:08:31;17.60;99.90
37998;DHT22;24079;51.824;4.682;2023-10-19T09:11:10;17.60;99.90
37998;DHT22;24079;51.824;4.682;2023-10-19T09:13:50;17.80;99.90
37998;DHT22;24079;51.824;4.682;2023-10-19T09:16:17;18.00;99.90
37998;DHT22;24079;51.824;4.682;2023-10-19T09:18:42;18.10;99.90
37998;DHT22;24079;51.824;4.682;2023-10-19T09:21:09;18.20;99.90
37998;DHT22;24079;51.824;4.682;2023-10-19T09:23:38;18.20;99.90
37998;DHT22;24079;51.824;4.682;2023-10-19T09:26:04;18.10;99.90
37998;DHT22;24079;51.824;4.682;2023-10-19T09:28:31;18.10;99.90
37998;DHT22;24079;51.824;4.682;2023-10-19T09:31:00;18.10;99.90
37998;DHT22;24079;51.824;4.682;2023-10-19T09:33:27;18.00;99.90
37998;DHT22;24079;51.824;4.682;2023-10-19T09:35:52;18.00;99.90
37998;DHT22;24079;51.824;4.682;2023-10-19T09:38:19;17.90;99.90
37998;DHT22;24079;51.824;4.682;2023-10-19T09:40:51;17.90;99.90
37998;DHT22;24079;51.824;4.682;2023-10-19T09:43:35;17.90;99.90
37998;DHT22;24079;51.824;4.682;2023-10-19T09:46:07;17.90;99.90
37998;DHT22;24079;51.824;4.682;2023-10-19T09:48:55;18.00;99.90
37998;DHT22;24079;51.824;4.682;2023-10-19T09:51:22;18.00;99.90
37998;DHT22;24079;51.824;4.682;2023-10-19T09:54:14;18.10;99.90
37998;DHT22;24079;51.824;4.682;2023-10-19T09:56:55;18.10;99.90
37998;DHT22;24079;51.824;4.682;2023-10-19T09:59:35;18.20;99.90
37998;DHT22;24079;51.824;4.682;2023-10-19T10:02:03;18.20;99.90
37998;DHT22;24079;51.824;4.682;2023-10-19T10:04:34;18.20;99.90
37998;DHT22;24079;51.824;4.682;2023-10-19T10:07:01;18.20;99.90
37998;DHT22;24079;51.824;4.682;2023-10-19T10:09:29;18.30;99.90
37998;DHT22;24079;51.824;4.682;2023-10-19T10:11:55;18.40;99.90
37998;DHT22;24079;51.824;4.682;2023-10-19T10:14:23;18.40;99.90
37998;DHT22;24079;51.824;4.682;2023-10-19T10:17:04;18.40;99.90
37998;DHT22;24079;51.824;4.682;2023-10-19T10:19:35;18.40;99.90
37998;DHT22;24079;51.824;4.682;2023-10-19T10:22:21;18.30;99.90
37998;DHT22;24079;51.824;4.682;2023-10-19T10:24:47;18.40;99.90
37998;DHT22;24079;51.824;4.682;2023-10-19T10:27:18;18.40;99.90
37998;DHT22;24079;51.824;4.682;2023-10-19T10:32:46;18.40;99.90
37998;DHT22;24079;51.824;4.682;2023-10-19T10:38:10;18.80;99.90
37998;DHT22;24079;51.824;4.682;2023-10-19T10:40:49;18.90;99.90
37998;DHT22;24079;51.824;4.682;2023-10-19T10:43:17;18.90;99.90
37998;DHT22;24079;51.824;4.682;2023-10-19T10:45:43;18.90;99.90
37998;DHT22;24079;51.824;4.682;2023-10-19T10:48:18;18.90;99.90
37998;DHT22;24079;51.824;4.682;2023-10-19T10:50:47;18.90;99.90
37998;DHT22;24079;51.824;4.682;2023-10-19T10:53:14;18.80;99.90
37998;DHT22;24079;51.824;4.682;2023-10-19T10:55:43;18.80;99.90
37998;DHT22;24079;51.824;4.682;2023-10-19T10:58:08;18.70;99.90
37998;DHT22;24079;51.824;4.682;2023-10-19T11:00:41;18.70;99.90
37998;DHT22;24079;51.824;4.682;2023-10-19T11:03:07;18.70;99.90
37998;DHT22;24079;51.824;4.682;2023-10-19T11:05:34;18.80;99.90
37998;DHT22;24079;51.824;4.682;2023-10-19T11:10:39;18.90;99.90
37998;DHT22;24079;51.824;4.682;2023-10-19T11:13:13;18.90;99.90
37998;DHT22;24079;51.824;4.682;2023-10-19T11:15:53;18.90;99.90
37998;DHT22;24079;51.824;4.682;2023-10-19T11:18:34;19.00;99.90
37998;DHT22;24079;51.824;4.682;2023-10-19T11:21:20;19.10;99.90
37998;DHT22;24079;51.824;4.682;2023-10-19T11:23:49;19.20;99.90
37998;DHT22;24079;51.824;4.682;2023-10-19T11:26:21;19.20;99.90
37998;DHT22;24079;51.824;4.682;2023-10-19T11:28:47;19.30;99.90
37998;DHT22;24079;51.824;4.682;2023-10-19T11:33:43;19.10;99.90
37998;DHT22;24079;51.824;4.682;2023-10-19T11:36:10;19.00;99.90
37998;DHT22;24079;51.824;4.682;2023-10-19T11:38:44;19.00;99.90
37998;DHT22;24079;51.824;4.682;2023-10-19T11:41:11;18.90;99.90
37998;DHT22;24079;51.824;4.682;2023-10-19T11:43:39;18.90;99.90
37998;DHT22;24079;51.824;4.682;2023-10-19T11:46:04;18.80;99.90
37998;DHT22;24079;51.824;4.682;2023-10-19T11:48:34;18.80;99.90
37998;DHT22;24079;51.824;4.682;2023-10-19T11:51:05;18.80;99.90
37998;DHT22;24079;51.824;4.682;2023-10-19T11:53:33;18.80;99.90
37998;DHT22;24079;51.824;4.682;2023-10-19T11:56:04;18.80;99.90
37998;DHT22;24079;51.824;4.682;2023-10-19T11:58:31;18.70;99.90
37998;DHT22;24079;51.824;4.682;2023-10-19T12:00:59;18.60;99.90
37998;DHT22;24079;51.824;4.682;2023-10-19T12:03:24;18.60;99.90
37998;DHT22;24079;51.824;4.682;2023-10-19T12:05:51;18.60;99.90
37998;DHT22;24079;51.824;4.682;2023-10-19T12:08:18;18.50;99.90
37998;DHT22;24079;51.824;4.682;2023-10-19T12:10:44;18.40;99.90
37998;DHT22;24079;51.824;4.682;2023-10-19T12:13:10;18.40;99.90
37998;DHT22;24079;51.824;4.682;2023-10-19T12:15:36;18.40;99.90
37998;DHT22;24079;51.824;4.682;2023-10-19T12:18:02;18.40;99.90
37998;DHT22;24079;51.824;4.682;2023-10-19T12:20:29;18.50;99.90
37998;DHT22;24079;51.824;4.682;2023-10-19T12:22:58;18.40;99.90
37998;DHT22;24079;51.824;4.682;2023-10-19T12:25:25;18.30;99.90
37998;DHT22;24079;51.824;4.682;2023-10-19T12:27:58;18.30;99.90
37998;DHT22;24079;51.824;4.682;2023-10-19T12:30:25;18.10;99.90
37998;DHT22;24079;51.824;4.682;2023-10-19T12:33:01;18.10;99.90
37998;DHT22;24079;51.824;4.682;2023-10-19T12:35:27;18.10;99.90
37998;DHT22;24079;51.824;4.682;2023-10-19T12:38:11;18.00;99.90
37998;DHT22;24079;51.824;4.682;2023-10-19T12:40:48;18.10;99.90
37998;DHT22;24079;51.824;4.682;2023-10-19T12:43:15;18.20;99.90
37998;DHT22;24079;51.824;4.682;2023-10-19T12:45:41;18.20;99.90
37998;DHT22;24079;51.824;4.682;2023-10-19T12:48:09;18.30;99.90
37998;DHT22;24079;51.824;4.682;2023-10-19T12:50:37;18.30;99.90
37998;DHT22;24079;51.824;4.682;2023-10-19T12:53:03;18.30;99.90
37998;DHT22;24079;51.824;4.682;2023-10-19T12:55:29;18.40;99.90
37998;DHT22;24079;51.824;4.682;2023-10-19T12:57:57;18.50;99.90
37998;DHT22;24079;51.824;4.682;2023-10-19T13:00:23;18.40;99.90
37998;DHT22;24079;51.824;4.682;2023-10-19T13:02:50;18.40;99.90
37998;DHT22;24079;51.824;4.682;2023-10-19T13:05:16;18.40;99.90
37998;DHT22;24079;51.824;4.682;2023-10-19T13:07:46;18.40;99.90
37998;DHT22;24079;51.824;4.682;2023-10-19T13:10:12;18.40;99.90
37998;DHT22;24079;51.824;4.682;2023-10-19T13:12:38;18.30;99.90
37998;DHT22;24079;51.824;4.682;2023-10-19T13:15:04;18.30;99.90
37998;DHT22;24079;51.824;4.682;2023-10-19T13:17:39;18.30;99.90
37998;DHT22;24079;51.824;4.682;2023-10-19T13:20:05;18.30;99.90
37998;DHT22;24079;51.824;4.682;2023-10-19T13:22:42;18.30;99.90
37998;DHT22;24079;51.824;4.682;2023-10-19T13:25:08;18.40;99.90
37998;DHT22;24079;51.824;4.682;2023-10-19T13:27:45;18.30;99.90
37998;DHT22;24079;51.824;4.682;2023-10-19T13:30:12;18.30;99.90
37998;DHT22;24079;51.824;4.682;2023-10-19T13:32:44;18.20;99.90
37998;DHT22;24079;51.824;4.682;2023-10-19T13:35:10;18.20;99.90
37998;DHT22;24079;51.824;4.682;2023-10-19T13:37:36;18.10;99.90
37998;DHT22;24079;51.824;4.682;2023-10-19T13:40:03;18.00;99.90
37998;DHT22;24079;51.824;4.682;2023-10-19T13:42:32;18.00;99.90
37998;DHT22;24079;51.824;4.682;2023-10-19T13:45:00;17.90;99.90
37998;DHT22;24079;51.824;4.682;2023-10-19T13:47:26;17.80;99.90
37998;DHT22;24079;51.824;4.682;2023-10-19T13:49:51;17.80;99.90
37998;DHT22;24079;51.824;4.682;2023-10-19T13:52:17;17.80;99.90
37998;DHT22;24079;51.824;4.682;2023-10-19T13:54:44;17.70;99.90
37998;DHT22;24079;51.824;4.682;2023-10-19T13:57:10;17.70;99.90
37998;DHT22;24079;51.824;4.682;2023-10-19T13:59:36;17.70;99.90
37998;DHT22;24079;51.824;4.682;2023-10-19T14:02:02;17.60;99.90
37998;DHT22;24079;51.824;4.682;2023-10-19T14:04:28;17.60;99.90
37998;DHT22;24079;51.824;4.682;2023-10-19T14:06:53;17.50;99.90
37998;DHT22;24079;51.824;4.682;2023-10-19T14:09:19;17.60;99.90
37998;DHT22;24079;51.824;4.682;2023-10-19T14:11:45;17.60;99.90
37998;DHT22;24079;51.824;4.682;2023-10-19T14:14:11;17.50;99.90
37998;DHT22;24079;51.824;4.682;2023-10-19T14:16:37;17.50;99.90
37998;DHT22;24079;51.824;4.682;2023-10-19T14:19:04;17.50;99.90
37998;DHT22;24079;51.824;4.682;2023-10-19T14:21:31;17.50;99.90
37998;DHT22;24079;51.824;4.682;2023-10-19T14:23:58;17.40;99.90
37998;DHT22;24079;51.824;4.682;2023-10-19T14:26:24;17.50;99.90
37998;DHT22;24079;51.824;4.682;2023-10-19T14:28:50;17.50;99.90
37998;DHT22;24079;51.824;4.682;2023-10-19T14:31:16;17.50;99.90
37998;DHT22;24079;51.824;4.682;2023-10-19T14:33:43;17.50;99.90
37998;DHT22;24079;51.824;4.682;2023-10-19T14:36:09;17.60;99.90
37998;DHT22;24079;51.824;4.682;2023-10-19T14:38:35;17.60;99.90
37998;DHT22;24079;51.824;4.682;2023-10-19T14:41:02;17.70;99.90
37998;DHT22;24079;51.824;4.682;2023-10-19T14:43:28;17.90;99.90
37998;DHT22;24079;51.824;4.682;2023-10-19T14:45:58;18.10;99.90
37998;DHT22;24079;51.824;4.682;2023-10-19T14:48:24;18.30;99.90
37998;DHT22;24079;51.824;4.682;2023-10-19T14:50:50;18.30;99.90
37998;DHT22;24079;51.824;4.682;2023-10-19T14:53:20;18.30;99.90
37998;DHT22;24079;51.824;4.682;2023-10-19T14:55:46;18.30;99.90
37998;DHT22;24079;51.824;4.682;2023-10-19T14:58:12;18.10;99.90
37998;DHT22;24079;51.824;4.682;2023-10-19T15:00:37;18.00;99.90
37998;DHT22;24079;51.824;4.682;2023-10-19T15:03:07;17.90;99.90
37998;DHT22;24079;51.824;4.682;2023-10-19T15:05:34;17.80;99.90
37998;DHT22;24079;51.824;4.682;2023-10-19T15:08:04;17.70;99.90
37998;DHT22;24079;51.824;4.682;2023-10-19T15:10:33;17.60;99.90
37998;DHT22;24079;51.824;4.682;2023-10-19T15:12:59;17.60;99.90
37998;DHT22;24079;51.824;4.682;2023-10-19T15:15:26;17.60;99.90
37998;DHT22;24079;51.824;4.682;2023-10-19T15:17:52;17.70;99.90
37998;DHT22;24079;51.824;4.682;2023-10-19T15:20:20;17.80;99.90
37998;DHT22;24079;51.824;4.682;2023-10-19T15:22:47;17.80;99.90
37998;DHT22;24079;51.824;4.682;2023-10-19T15:25:14;17.80;99.90
37998;DHT22;24079;51.824;4.682;2023-10-19T15:27:45;17.80;99.90
37998;DHT22;24079;51.824;4.682;2023-10-19T15:30:12;17.70;99.90
37998;DHT22;24079;51.824;4.682;2023-10-19T15:32:39;17.70;99.90
37998;DHT22;24079;51.824;4.682;2023-10-19T15:35:13;17.70;99.90
37998;DHT22;24079;51.824;4.682;2023-10-19T15:37:43;17.70;99.90
37998;DHT22;24079;51.824;4.682;2023-10-19T15:40:10;17.70;99.90
37998;DHT22;24079;51.824;4.682;2023-10-19T15:42:42;17.60;99.90
37998;DHT22;24079;51.824;4.682;2023-10-19T15:45:13;17.60;99.90
37998;DHT22;24079;51.824;4.682;2023-10-19T15:47:40;17.60;99.90
37998;DHT22;24079;51.824;4.682;2023-10-19T15:50:07;17.50;99.90
37998;DHT22;24079;51.824;4.682;2023-10-19T15:52:34;17.50;99.90
37998;DHT22;24079;51.824;4.682;2023-10-19T15:55:02;17.50;99.90